^^
Datos históricos de la estación: Murcia-Puente Tocinos
Diario Informe para Agosto 19, 2022 Unidades:  Ambas    Ingés   Métrico
Diario Semanal Mensual Anual
  Máxima: Mínima: Promedio:
Temperatura: 90.1 °F /  32.3 °C 73.8 °F /  23.2 °C 81.5 °F /  27.5 °C
Punto de rocio: 70.2 °F /  21.2 °C 60.3 °F /  15.7 °C 65.7 °F /  18.7 °C
Humedad: 81% 38.1% 61%
Velocidad viento: 12.3mph /  19.8km/h - 5mph /  8km/h
Racha viento: 24.6mph /  39.6km/h - -
Viento- - SE
Presión: 30.1 in /  1018.0 hPa 30 in /  1014.8 hPa -
Precipitación: 0 in /  0.0 mm    
 
 
Tabla de datos para Agosto 19, 2022
Hora Temperatura Punto de rocio Presión Viento Velocidad viento Racha viento Humedad Intensidad lluvia(por hora) Nubes
00:04 77.7 °F /  25.4 °C 70 °F /  21.1 °C 30in /  1015.5hPa NNE 5.3mph /  8.6km/h 9.2mph /  14.8km/h 77% 0in /  0.0mm
00:09 77.5 °F /  25.3 °C 69.8 °F /  21 °C 30in /  1015.5hPa NE 5.4mph /  8.7km/h 8.1mph /  13km/h 77% 0in /  0.0mm
00:14 77.5 °F /  25.3 °C 70 °F /  21.1 °C 30in /  1015.5hPa NE 4.9mph /  7.9km/h 8.5mph /  13.7km/h 77.6% 0in /  0.0mm
00:19 77.5 °F /  25.3 °C 70.2 °F /  21.2 °C 30in /  1015.5hPa NE 4.7mph /  7.6km/h 8.1mph /  13km/h 78% 0in /  0.0mm
00:24 77.4 °F /  25.2 °C 70 °F /  21.1 °C 30in /  1015.5hPa NE 5.2mph /  8.3km/h 8.1mph /  13km/h 78% 0in /  0.0mm
00:29 77.4 °F /  25.2 °C 70 °F /  21.1 °C 30in /  1015.6hPa NNE 5.4mph /  8.7km/h 8.1mph /  13km/h 78% 0in /  0.0mm
00:34 77.4 °F /  25.2 °C 70 °F /  21.1 °C 30in /  1015.6hPa NE 5.3mph /  8.5km/h 9.2mph /  14.8km/h 78% 0in /  0.0mm
00:39 77.4 °F /  25.2 °C 70 °F /  21.1 °C 30in /  1015.6hPa NE 5.2mph /  8.4km/h 6.9mph /  11.1km/h 78% 0in /  0.0mm
00:44 77.2 °F /  25.1 °C 69.8 °F /  21 °C 30in /  1015.7hPa NE 5.2mph /  8.4km/h 6.9mph /  11.1km/h 78% 0in /  0.0mm
00:49 77.2 °F /  25.1 °C 70.2 °F /  21.2 °C 30in /  1015.7hPa NE 5.2mph /  8.4km/h 6.9mph /  11.1km/h 78.9% 0in /  0.0mm
00:54 77.2 °F /  25.1 °C 70.2 °F /  21.2 °C 30in /  1015.7hPa NE 4.6mph /  7.4km/h 7.4mph /  11.9km/h 79% 0in /  0.0mm
00:59 77.2 °F /  25.1 °C 70.2 °F /  21.2 °C 30in /  1015.7hPa NE 4.3mph /  6.9km/h 8.1mph /  13km/h 79% 0in /  0.0mm
01:04 77 °F /  25 °C 70 °F /  21.1 °C 30in /  1015.7hPa NE 4.6mph /  7.4km/h 8.1mph /  13km/h 79% 0in /  0.0mm
01:09 76.8 °F /  24.9 °C 69.8 °F /  21 °C 30in /  1015.7hPa NE 4.7mph /  7.6km/h 7.6mph /  12.2km/h 79% 0in /  0.0mm
01:14 76.8 °F /  24.9 °C 69.8 °F /  21 °C 30in /  1015.8hPa NE 4.7mph /  7.6km/h 8.1mph /  13km/h 79% 0in /  0.0mm
01:19 76.8 °F /  24.9 °C 69.8 °F /  21 °C 30in /  1015.8hPa NE 4.7mph /  7.6km/h 7.4mph /  11.9km/h 79% 0in /  0.0mm
01:24 76.8 °F /  24.9 °C 69.8 °F /  21 °C 30in /  1015.8hPa NE 4.7mph /  7.6km/h 5.8mph /  9.3km/h 79% 0in /  0.0mm
01:29 76.8 °F /  24.9 °C 69.8 °F /  21 °C 30in /  1015.8hPa NE 4.7mph /  7.6km/h 6.2mph /  10km/h 79% 0in /  0.0mm
01:34 76.8 °F /  24.9 °C 69.8 °F /  21 °C 30in /  1015.8hPa NE 3.7mph /  6km/h 5.8mph /  9.3km/h 79% 0in /  0.0mm
01:39 76.8 °F /  24.9 °C 69.8 °F /  21 °C 30in /  1015.8hPa NE 3.1mph /  5km/h 5.9mph /  9.5km/h 79% 0in /  0.0mm
01:44 76.6 °F /  24.8 °C 69.6 °F /  20.9 °C 30in /  1015.9hPa NE 3.1mph /  5km/h 5.8mph /  9.3km/h 79% 0in /  0.0mm
01:49 76.6 °F /  24.8 °C 69.8 °F /  21 °C 30in /  1015.9hPa NE 3.1mph /  5km/h 4.6mph /  7.4km/h 79.5% 0in /  0.0mm
01:54 76.6 °F /  24.8 °C 70 °F /  21.1 °C 30in /  1015.9hPa NE 3mph /  4.8km/h 4.7mph /  7.6km/h 80% 0in /  0.0mm
01:59 76.5 °F /  24.7 °C 69.8 °F /  21 °C 30in /  1016.0hPa NE 2.9mph /  4.7km/h 5.8mph /  9.3km/h 80% 0in /  0.0mm
02:04 76.5 °F /  24.7 °C 69.8 °F /  21 °C 30in /  1016.0hPa NE 3mph /  4.9km/h 5.8mph /  9.3km/h 80% 0in /  0.0mm
02:09 76.5 °F /  24.7 °C 69.8 °F /  21 °C 30in /  1016.0hPa NE 3.1mph /  5km/h 5.2mph /  8.4km/h 80% 0in /  0.0mm
02:14 76.5 °F /  24.7 °C 69.8 °F /  21 °C 30in /  1016.0hPa NE 3.1mph /  5km/h 5.2mph /  8.4km/h 80% 0in /  0.0mm
02:19 76.5 °F /  24.7 °C 69.8 °F /  21 °C 30in /  1016.0hPa NE 3.1mph /  5km/h 4.6mph /  7.4km/h 80% 0in /  0.0mm
02:24 76.5 °F /  24.7 °C 69.8 °F /  21 °C 30in /  1016.0hPa NE 2.6mph /  4.2km/h 4.7mph /  7.6km/h 80% 0in /  0.0mm
02:29 76.5 °F /  24.7 °C 69.8 °F /  21 °C 30in /  1016.0hPa NE 2.4mph /  3.9km/h 4.6mph /  7.4km/h 80% 0in /  0.0mm
02:34 76.3 °F /  24.6 °C 69.6 °F /  20.9 °C 30in /  1015.9hPa NE 2.7mph /  4.4km/h 4.6mph /  7.4km/h 80% 0in /  0.0mm
02:39 76.3 °F /  24.6 °C 69.6 °F /  20.9 °C 30in /  1015.9hPa NNE 2.9mph /  4.7km/h 4.6mph /  7.4km/h 80% 0in /  0.0mm
02:44 76.3 °F /  24.6 °C 70 °F /  21.1 °C 30in /  1015.9hPa NNE 2.5mph /  4.1km/h 4.6mph /  7.4km/h 80.9% 0in /  0.0mm
02:49 76.3 °F /  24.6 °C 70 °F /  21.1 °C 30in /  1015.9hPa ENE 2.4mph /  3.9km/h 5.9mph /  9.5km/h 80.8% 0in /  0.0mm
02:54 76.5 °F /  24.7 °C 69.8 °F /  21 °C 30in /  1015.9hPa Este 2.4mph /  3.9km/h 5.8mph /  9.3km/h 80% 0in /  0.0mm
02:59 76.5 °F /  24.7 °C 69.8 °F /  21 °C 30in /  1015.9hPa Este 2.4mph /  3.9km/h 4.6mph /  7.4km/h 80% 0in /  0.0mm
03:04 76.5 °F /  24.7 °C 69.8 °F /  21 °C 30in /  1015.8hPa Este 2.1mph /  3.4km/h 2.4mph /  3.9km/h 80% 0in /  0.0mm
03:09 76.6 °F /  24.8 °C 70 °F /  21.1 °C 30in /  1015.8hPa Este 2mph /  3.2km/h 3.5mph /  5.6km/h 80% 0in /  0.0mm
03:14 76.6 °F /  24.8 °C 69.8 °F /  21 °C 30in /  1015.8hPa ENE 1.6mph /  2.5km/h 5.2mph /  8.4km/h 79.5% 0in /  0.0mm
03:19 76.6 °F /  24.8 °C 69.6 °F /  20.9 °C 30in /  1015.8hPa NNE 1.4mph /  2.3km/h 4.7mph /  7.6km/h 79% 0in /  0.0mm
03:24 76.5 °F /  24.7 °C 69.8 °F /  21 °C 30in /  1015.8hPa NE 2.5mph /  4km/h 4.7mph /  7.6km/h 79.9% 0in /  0.0mm
03:29 76.3 °F /  24.6 °C 69.8 °F /  21 °C 30in /  1015.8hPa NE 2.9mph /  4.7km/h 4.6mph /  7.4km/h 80.2% 0in /  0.0mm
03:34 76.1 °F /  24.5 °C 69.8 °F /  21 °C 30in /  1015.8hPa NE 2.5mph /  4.1km/h 2.3mph /  3.7km/h 81% 0in /  0.0mm
03:39 76.3 °F /  24.6 °C 70 °F /  21.1 °C 30in /  1015.8hPa NE 2.4mph /  3.9km/h 2.3mph /  3.7km/h 81% 0in /  0.0mm
03:44 76.3 °F /  24.6 °C 70 °F /  21.1 °C 30in /  1015.8hPa NE 0.8mph /  1.3km/h 3.5mph /  5.6km/h 81% 0in /  0.0mm
03:49 76.3 °F /  24.6 °C 70 °F /  21.1 °C 30in /  1015.8hPa Calm   2.3mph /  3.7km/h 81% 0in /  0.0mm
03:54 76.5 °F /  24.7 °C 70.2 °F /  21.2 °C 30in /  1015.8hPa Calm   4.6mph /  7.4km/h 81% 0in /  0.0mm
03:59 76.3 °F /  24.6 °C 70 °F /  21.1 °C 30in /  1015.8hPa Calm   5.9mph /  9.5km/h 81% 0in /  0.0mm
04:04 76.3 °F /  24.6 °C 70 °F /  21.1 °C 30in /  1015.7hPa NNE 1.6mph /  2.6km/h 3.5mph /  5.6km/h 81% 0in /  0.0mm
04:09 76.3 °F /  24.6 °C 70 °F /  21.1 °C 30in /  1015.7hPa NNE 2.4mph /  3.9km/h 2.9mph /  4.7km/h 81% 0in /  0.0mm
04:14 76.3 °F /  24.6 °C 70 °F /  21.1 °C 30in /  1015.8hPa NNE 1.7mph /  2.8km/h 4.6mph /  7.4km/h 81% 0in /  0.0mm
04:19 76.1 °F /  24.5 °C 69.8 °F /  21 °C 30in /  1015.8hPa NNO 1.4mph /  2.3km/h 4.6mph /  7.4km/h 81% 0in /  0.0mm
04:24 75.9 °F /  24.4 °C 69.8 °F /  21 °C 30in /  1015.8hPa NNE 1.9mph /  3.1km/h 5.2mph /  8.4km/h 81% 0in /  0.0mm
04:29 75.9 °F /  24.4 °C 69.6 °F /  20.9 °C 30in /  1015.8hPa NNE 2mph /  3.2km/h 5.2mph /  8.4km/h 81% 0in /  0.0mm
04:34 75.7 °F /  24.3 °C 69.4 °F /  20.8 °C 30in /  1015.8hPa NNE 2.2mph /  3.6km/h 4.6mph /  7.4km/h 81% 0in /  0.0mm
04:39 75.7 °F /  24.3 °C 69.4 °F /  20.8 °C 30in /  1015.8hPa North 2.4mph /  3.9km/h 4.6mph /  7.4km/h 81% 0in /  0.0mm
04:44 75.6 °F /  24.2 °C 69.4 °F /  20.8 °C 30in /  1015.8hPa NNE 2.7mph /  4.4km/h 4.6mph /  7.4km/h 81% 0in /  0.0mm
04:49 75.6 °F /  24.2 °C 69.3 °F /  20.7 °C 30in /  1015.8hPa NNE 2.9mph /  4.7km/h 4.7mph /  7.6km/h 81% 0in /  0.0mm
04:54 75.4 °F /  24.1 °C 69.1 °F /  20.6 °C 30in /  1015.8hPa NNE 3mph /  4.9km/h 5.8mph /  9.3km/h 81% 0in /  0.0mm
04:59 75.2 °F /  24 °C 69.1 °F /  20.6 °C 30in /  1015.8hPa NNE 3.1mph /  5km/h 4.6mph /  7.4km/h 81% 0in /  0.0mm
05:04 75.2 °F /  24 °C 68.9 °F /  20.5 °C 30in /  1015.8hPa NE 3mph /  4.8km/h 4.6mph /  7.4km/h 81% 0in /  0.0mm
05:09 75 °F /  23.9 °C 68.7 °F /  20.4 °C 30in /  1015.8hPa NE 2.9mph /  4.7km/h 4.6mph /  7.4km/h 81% 0in /  0.0mm
05:14 75 °F /  23.9 °C 68.7 °F /  20.4 °C 30in /  1015.8hPa NE 2.5mph /  4.1km/h 3.6mph /  5.8km/h 81% 0in /  0.0mm
05:19 75 °F /  23.9 °C 68.9 °F /  20.5 °C 30in /  1015.8hPa SSE 2.4mph /  3.9km/h 5.8mph /  9.3km/h 81% 0in /  0.0mm
05:24 75.2 °F /  24 °C 68.9 °F /  20.5 °C 30in /  1015.8hPa SSE 2.9mph /  4.6km/h 5.8mph /  9.3km/h 81% 0in /  0.0mm
05:29 75 °F /  23.9 °C 68.7 °F /  20.4 °C 30in /  1015.9hPa SSE 2.9mph /  4.7km/h 5.2mph /  8.4km/h 81% 0in /  0.0mm
05:34 75 °F /  23.9 °C 68.7 °F /  20.4 °C 30in /  1015.9hPa SSE 3.4mph /  5.4km/h 5.2mph /  8.4km/h 81% 0in /  0.0mm
05:39 75 °F /  23.9 °C 68.7 °F /  20.4 °C 30in /  1015.9hPa SSO 3.6mph /  5.8km/h 6.9mph /  11.1km/h 80.6% 0in /  0.0mm
05:44 75 °F /  23.9 °C 68.4 °F /  20.2 °C 30in /  1016.0hPa SSO 3.6mph /  5.8km/h 5.9mph /  9.5km/h 80% 0in /  0.0mm
05:49 75 °F /  23.9 °C 68.2 °F /  20.1 °C 30in /  1016.0hPa SSO 3.6mph /  5.8km/h 7.4mph /  11.9km/h 79% 0in /  0.0mm
05:54 75 °F /  23.9 °C 68.2 °F /  20.1 °C 30in /  1016.0hPa SSO 4.1mph /  6.6km/h 6.2mph /  10km/h 79% 0in /  0.0mm
05:59 75 °F /  23.9 °C 68 °F /  20 °C 30in /  1016.1hPa SSO 4.3mph /  6.9km/h 6.9mph /  11.1km/h 78.6% 0in /  0.0mm
06:04 75.2 °F /  24 °C 67.8 °F /  19.9 °C 30in /  1016.1hPa SSO 4.1mph /  6.6km/h 5.8mph /  9.3km/h 78% 0in /  0.0mm
06:09 75.2 °F /  24 °C 67.8 °F /  19.9 °C 30in /  1016.1hPa SSO 4mph /  6.4km/h 6.9mph /  11.1km/h 78% 0in /  0.0mm
06:14 75.2 °F /  24 °C 68 °F /  20 °C 30in /  1016.1hPa SO 4mph /  6.4km/h 6.9mph /  11.1km/h 78% 0in /  0.0mm
06:19 75.4 °F /  24.1 °C 68 °F /  20 °C 30in /  1016.1hPa SO 4mph /  6.4km/h 5.8mph /  9.3km/h 78% 0in /  0.0mm
06:24 75.4 °F /  24.1 °C 68 °F /  20 °C 30in /  1016.1hPa OSO 3.7mph /  6km/h 5.2mph /  8.4km/h 78% 0in /  0.0mm
06:29 75.4 °F /  24.1 °C 68 °F /  20 °C 30in /  1016.2hPa OSO 3.6mph /  5.8km/h 5.4mph /  8.7km/h 78% 0in /  0.0mm
06:34 75.4 °F /  24.1 °C 68 °F /  20 °C 30in /  1016.2hPa SO 3.2mph /  5.2km/h 5.8mph /  9.3km/h 78% 0in /  0.0mm
06:39 75.4 °F /  24.1 °C 68 °F /  20 °C 30in /  1016.2hPa OSO 3.1mph /  5km/h 5.2mph /  8.4km/h 78% 0in /  0.0mm
06:44 75.4 °F /  24.1 °C 68 °F /  20 °C 30in /  1016.3hPa Oeste 2.6mph /  4.2km/h 3.5mph /  5.6km/h 78% 0in /  0.0mm
06:49 75.2 °F /  24 °C 67.8 °F /  19.9 °C 30in /  1016.3hPa Oeste 2.4mph /  3.9km/h 2.9mph /  4.7km/h 78% 0in /  0.0mm
06:54 75 °F /  23.9 °C 67.8 °F /  19.9 °C 30in /  1016.3hPa ONO 1.7mph /  2.8km/h 2.4mph /  3.9km/h 78% 0in /  0.0mm
06:59 75 °F /  23.9 °C 67.8 °F /  19.9 °C 30in /  1016.4hPa ONO 1.4mph /  2.3km/h 3.5mph /  5.6km/h 78.4% 0in /  0.0mm
07:04 74.8 °F /  23.8 °C 67.8 °F /  19.9 °C 30in /  1016.4hPa ONO 1.7mph /  2.7km/h 4.3mph /  6.9km/h 79% 0in /  0.0mm
07:09 74.7 °F /  23.7 °C 67.3 °F /  19.6 °C 30in /  1016.4hPa Este 1.8mph /  2.9km/h 5.2mph /  8.4km/h 78.1% 0in /  0.0mm
07:14 74.1 °F /  23.4 °C 67.1 °F /  19.5 °C 30in /  1016.6hPa Este 2.5mph /  4.1km/h 4.7mph /  7.6km/h 78.8% 0in /  0.0mm
07:19 73.8 °F /  23.2 °C 67.3 °F /  19.6 °C 30in /  1016.6hPa ESE 2.9mph /  4.7km/h 4.6mph /  7.4km/h 79.9% 0in /  0.0mm
07:24 73.8 °F /  23.2 °C 67.3 °F /  19.6 °C 30in /  1016.6hPa ESE 2.5mph /  4.1km/h 4.6mph /  7.4km/h 80.1% 0in /  0.0mm
07:29 73.8 °F /  23.2 °C 67.6 °F /  19.8 °C 30in /  1016.8hPa ENE 2.4mph /  3.9km/h 3.5mph /  5.6km/h 81% 0in /  0.0mm
07:34 73.8 °F /  23.2 °C 67.6 °F /  19.8 °C 30in /  1016.8hPa Este 2mph /  3.2km/h 4.6mph /  7.4km/h 81% 0in /  0.0mm
07:39 73.8 °F /  23.2 °C 67.6 °F /  19.8 °C 30in /  1016.8hPa Sur 1.8mph /  2.9km/h 4.7mph /  7.6km/h 81% 0in /  0.0mm
07:44 73.8 °F /  23.2 °C 67.6 °F /  19.8 °C 30in /  1017.0hPa Sur 2.5mph /  4.1km/h 5.9mph /  9.5km/h 81% 0in /  0.0mm
07:49 73.9 °F /  23.3 °C 67.6 °F /  19.8 °C 30in /  1017.0hPa Sur 2.9mph /  4.7km/h 5.9mph /  9.5km/h 81% 0in /  0.0mm
07:54 74.1 °F /  23.4 °C 68 °F /  20 °C 30in /  1017.0hPa SSO 3.4mph /  5.4km/h 5.8mph /  9.3km/h 81% 0in /  0.0mm
07:59 74.3 °F /  23.5 °C 67.8 °F /  19.9 °C 30in /  1017.1hPa SSO 3.6mph /  5.8km/h 5.9mph /  9.5km/h 80.2% 0in /  0.0mm
08:04 74.5 °F /  23.6 °C 67.8 °F /  19.9 °C 30in /  1017.1hPa SO 3.6mph /  5.8km/h 4.6mph /  7.4km/h 80% 0in /  0.0mm
08:09 74.7 °F /  23.7 °C 68 °F /  20 °C 30in /  1017.1hPa OSO 3.6mph /  5.8km/h 4.6mph /  7.4km/h 80% 0in /  0.0mm
08:14 74.8 °F /  23.8 °C 68 °F /  20 °C 30in /  1017.2hPa OSO 2.8mph /  4.5km/h 4.6mph /  7.4km/h 79.4% 0in /  0.0mm
08:19 75 °F /  23.9 °C 68 °F /  20 °C 30in /  1017.2hPa Oeste 2.4mph /  3.9km/h 4.6mph /  7.4km/h 78.9% 0in /  0.0mm
08:24 75.2 °F /  24 °C 68 °F /  20 °C 30in /  1017.2hPa Oeste 2.4mph /  3.9km/h 3.5mph /  5.6km/h 78% 0in /  0.0mm
08:29 75.4 °F /  24.1 °C 68 °F /  20 °C 30in /  1017.3hPa SO 2.4mph /  3.9km/h 4.6mph /  7.4km/h 78% 0in /  0.0mm
08:34 75.6 °F /  24.2 °C 68.2 °F /  20.1 °C 30in /  1017.3hPa SSO 2.4mph /  3.9km/h 4.6mph /  7.4km/h 78% 0in /  0.0mm
08:39 75.7 °F /  24.3 °C 68 °F /  20 °C 30in /  1017.3hPa SO 2.4mph /  3.9km/h 4.7mph /  7.6km/h 77.1% 0in /  0.0mm
08:44 75.7 °F /  24.3 °C 68 °F /  20 °C 30.1in /  1017.5hPa SSO 2.7mph /  4.4km/h 5.9mph /  9.5km/h 77% 0in /  0.0mm
08:49 75.9 °F /  24.4 °C 68.2 °F /  20.1 °C 30.1in /  1017.5hPa SSE 2.9mph /  4.7km/h 5.8mph /  9.3km/h 77% 0in /  0.0mm
08:54 76.1 °F /  24.5 °C 68.2 °F /  20.1 °C 30.1in /  1017.5hPa SE 3.4mph /  5.4km/h 5.2mph /  8.4km/h 76.7% 0in /  0.0mm
08:59 76.5 °F /  24.7 °C 68.2 °F /  20.1 °C 30.1in /  1017.5hPa Sur 3.6mph /  5.8km/h 5.9mph /  9.5km/h 75.8% 0in /  0.0mm
09:04 76.5 °F /  24.7 °C 67.8 °F /  19.9 °C 30.1in /  1017.5hPa SSO 3.2mph /  5.2km/h 5.9mph /  9.5km/h 75% 0in /  0.0mm
09:09 76.5 °F /  24.7 °C 68.2 °F /  20.1 °C 30.1in /  1017.5hPa SSE 3.1mph /  5km/h 4.6mph /  7.4km/h 75.8% 0in /  0.0mm
09:14 76.6 °F /  24.8 °C 68 °F /  20 °C 30.1in /  1017.7hPa SE 3.1mph /  5km/h 6.4mph /  10.3km/h 75% 0in /  0.0mm
09:19 76.8 °F /  24.9 °C 68.2 °F /  20.1 °C 30.1in /  1017.7hPa SSE 3.1mph /  5km/h 6.9mph /  11.1km/h 74.9% 0in /  0.0mm
09:24 77 °F /  25 °C 68.2 °F /  20.1 °C 30.1in /  1017.7hPa Sur 3.1mph /  5km/h 5.8mph /  9.3km/h 74.1% 0in /  0.0mm
09:29 77.2 °F /  25.1 °C 68.2 °F /  20.1 °C 30.1in /  1017.8hPa OSO 3.1mph /  5km/h 5.8mph /  9.3km/h 74% 0in /  0.0mm
09:34 77.5 °F /  25.3 °C 68.5 °F /  20.3 °C 30.1in /  1017.8hPa OSO 3.1mph /  5km/h 3.5mph /  5.6km/h 74% 0in /  0.0mm
09:39 77.9 °F /  25.5 °C 68.5 °F /  20.3 °C 30.1in /  1017.8hPa ONO 3.1mph /  5km/h 4.7mph /  7.6km/h 72.8% 0in /  0.0mm
09:44 78.4 °F /  25.8 °C 68.4 °F /  20.2 °C 30.1in /  1017.8hPa ONO 2.2mph /  3.5km/h 4.7mph /  7.6km/h 71.5% 0in /  0.0mm
09:49 78.6 °F /  25.9 °C 68.2 °F /  20.1 °C 30.1in /  1017.8hPa SSO 1.8mph /  2.9km/h 6.9mph /  11.1km/h 70.5% 0in /  0.0mm
09:54 78.6 °F /  25.9 °C 68.2 °F /  20.1 °C 30.1in /  1017.8hPa SSE 2.5mph /  4.1km/h 5.8mph /  9.3km/h 70.1% 0in /  0.0mm
09:59 79 °F /  26.1 °C 68.7 °F /  20.4 °C 30.1in /  1017.9hPa North 2.9mph /  4.7km/h 4.6mph /  7.4km/h 70.6% 0in /  0.0mm
10:04 79.3 °F /  26.3 °C 68 °F /  20 °C 30.1in /  1017.9hPa SO 2.9mph /  4.7km/h 6.2mph /  10km/h 68.4% 0in /  0.0mm
10:09 79.3 °F /  26.3 °C 68.4 °F /  20.2 °C 30.1in /  1017.9hPa SO 2.9mph /  4.7km/h 5.2mph /  8.4km/h 69% 0in /  0.0mm
10:14 79.5 °F /  26.4 °C 68.5 °F /  20.3 °C 30.1in /  1018.0hPa SO 2.9mph /  4.7km/h 5.8mph /  9.3km/h 69% 0in /  0.0mm
10:19 79.9 °F /  26.6 °C 68.7 °F /  20.4 °C 30.1in /  1018.0hPa ESE 2.9mph /  4.7km/h 4.6mph /  7.4km/h 68.9% 0in /  0.0mm
10:24 80.2 °F /  26.8 °C 68.4 °F /  20.2 °C 30.1in /  1018.0hPa NO 2.5mph /  4.1km/h 4.7mph /  7.6km/h 66.8% 0in /  0.0mm
10:29 80.8 °F /  27.1 °C 68.2 °F /  20.1 °C 30.1in /  1018.0hPa ONO 2.4mph /  3.9km/h 5.9mph /  9.5km/h 65.7% 0in /  0.0mm
10:34 80.8 °F /  27.1 °C 67.8 °F /  19.9 °C 30.1in /  1017.8hPa ONO 2.7mph /  4.4km/h 6.9mph /  11.1km/h 65% 0in /  0.0mm
10:39 80.6 °F /  27 °C 67.8 °F /  19.9 °C 30.1in /  1017.8hPa OSO 2.9mph /  4.7km/h 6.9mph /  11.1km/h 65% 0in /  0.0mm
10:44 80.4 °F /  26.9 °C 67.6 °F /  19.8 °C 30.1in /  1017.9hPa Oeste 3mph /  4.9km/h 8.1mph /  13km/h 65% 0in /  0.0mm
10:49 80.4 °F /  26.9 °C 67.5 °F /  19.7 °C 30.1in /  1017.9hPa ONO 3.1mph /  5km/h 5.8mph /  9.3km/h 64.7% 0in /  0.0mm
10:54 80.8 °F /  27.1 °C 67.1 °F /  19.5 °C 30.1in /  1017.9hPa NO 3mph /  4.8km/h 4.7mph /  7.6km/h 63.1% 0in /  0.0mm
10:59 81.1 °F /  27.3 °C 67.3 °F /  19.6 °C 30.1in /  1017.9hPa North 2.9mph /  4.7km/h 6.9mph /  11.1km/h 62.8% 0in /  0.0mm
11:04 81.5 °F /  27.5 °C 67.3 °F /  19.6 °C 30.1in /  1017.9hPa ENE 3mph /  4.9km/h 6.9mph /  11.1km/h 62% 0in /  0.0mm
11:09 81.9 °F /  27.7 °C 67.3 °F /  19.6 °C 30.1in /  1017.9hPa SSE 3.1mph /  5km/h 6.9mph /  11.1km/h 61.4% 0in /  0.0mm
11:14 81.9 °F /  27.7 °C 67.3 °F /  19.6 °C 30.1in /  1017.9hPa Sur 3.5mph /  5.6km/h 6.9mph /  11.1km/h 61.3% 0in /  0.0mm
11:19 82 °F /  27.8 °C 67.3 °F /  19.6 °C 30.1in /  1017.9hPa Sur 3.6mph /  5.8km/h 8.1mph /  13km/h 61% 0in /  0.0mm
11:24 82 °F /  27.8 °C 67.3 °F /  19.6 °C 30.1in /  1017.9hPa SSO 3.9mph /  6.2km/h 6.9mph /  11.1km/h 60.9% 0in /  0.0mm
11:29 82.2 °F /  27.9 °C 66.9 °F /  19.4 °C 30.1in /  1017.9hPa SO 4mph /  6.4km/h 7.4mph /  11.9km/h 60.1% 0in /  0.0mm
11:34 82.2 °F /  27.9 °C 66.9 °F /  19.4 °C 30.1in /  1017.8hPa OSO 3.7mph /  6km/h 8.5mph /  13.7km/h 60% 0in /  0.0mm
11:39 82.2 °F /  27.9 °C 66.9 °F /  19.4 °C 30.1in /  1017.8hPa SSO 3.6mph /  5.8km/h 5.2mph /  8.4km/h 60% 0in /  0.0mm
11:44 82.8 °F /  28.2 °C 67.5 °F /  19.7 °C 30.1in /  1017.8hPa SE 3.6mph /  5.8km/h 8.5mph /  13.7km/h 60% 0in /  0.0mm
11:49 83.5 °F /  28.6 °C 67.3 °F /  19.6 °C 30.1in /  1017.7hPa Este 3.6mph /  5.8km/h 8.1mph /  13km/h 58.5% 0in /  0.0mm
11:54 83.8 °F /  28.8 °C 67.5 °F /  19.7 °C 30.1in /  1017.7hPa SE 3.9mph /  6.2km/h 4.7mph /  7.6km/h 57.7% 0in /  0.0mm
11:59 84.4 °F /  29.1 °C 66.7 °F /  19.3 °C 30.1in /  1017.7hPa SE 4mph /  6.4km/h 8.1mph /  13km/h 55.7% 0in /  0.0mm
12:04 84.7 °F /  29.3 °C 66.4 °F /  19.1 °C 30.1in /  1017.7hPa ESE 3.2mph /  5.2km/h 6.9mph /  11.1km/h 54.2% 0in /  0.0mm
12:09 85.3 °F /  29.6 °C 66 °F /  18.9 °C 30.1in /  1017.7hPa SSE 3.1mph /  5km/h 5.9mph /  9.5km/h 52.7% 0in /  0.0mm
12:14 85.8 °F /  29.9 °C 64.8 °F /  18.2 °C 30.1in /  1017.7hPa ESE 3.1mph /  5km/h 8.1mph /  13km/h 49.7% 0in /  0.0mm
12:19 85.8 °F /  29.9 °C 64 °F /  17.8 °C 30.1in /  1017.5hPa Oeste 3.1mph /  5km/h 5.9mph /  9.5km/h 48.3% 0in /  0.0mm
12:24 86.4 °F /  30.2 °C 64.6 °F /  18.1 °C 30.1in /  1017.5hPa Este 3.4mph /  5.5km/h 8.5mph /  13.7km/h 48.5% 0in /  0.0mm
12:29 86.4 °F /  30.2 °C 64.6 °F /  18.1 °C 30.1in /  1017.5hPa SSE 3.6mph /  5.8km/h 8.1mph /  13km/h 48.4% 0in /  0.0mm
12:34 86.2 °F /  30.1 °C 64.8 °F /  18.2 °C 30in /  1017.4hPa SE 3.9mph /  6.2km/h 4.7mph /  7.6km/h 49% 0in /  0.0mm
12:39 86.2 °F /  30.1 °C 64.2 °F /  17.9 °C 30in /  1017.4hPa SSE 4mph /  6.4km/h 9.2mph /  14.8km/h 47.8% 0in /  0.0mm
12:44 86.2 °F /  30.1 °C 63.1 °F /  17.3 °C 30in /  1017.4hPa SSO 4.2mph /  6.8km/h 10.4mph /  16.7km/h 46.3% 0in /  0.0mm
12:49 86.2 °F /  30.1 °C 62.6 °F /  17 °C 30in /  1017.3hPa SSE 4.3mph /  6.9km/h 8.1mph /  13km/h 45.5% 0in /  0.0mm
12:54 86.4 °F /  30.2 °C 61.9 °F /  16.6 °C 30in /  1017.3hPa Sur 4.9mph /  7.9km/h 9.2mph /  14.8km/h 43.8% 0in /  0.0mm
12:59 86.7 °F /  30.4 °C 61.5 °F /  16.4 °C 30in /  1017.3hPa SSE 5.2mph /  8.4km/h 9.2mph /  14.8km/h 43.2% 0in /  0.0mm
13:04 86.9 °F /  30.5 °C 61.2 °F /  16.2 °C 30in /  1017.2hPa SSE 5.2mph /  8.4km/h 10.4mph /  16.7km/h 42.2% 0in /  0.0mm
13:09 87.1 °F /  30.6 °C 61.3 °F /  16.3 °C 30in /  1017.2hPa SSE 5.2mph /  8.4km/h 7.4mph /  11.9km/h 42.1% 0in /  0.0mm
13:14 87.3 °F /  30.7 °C 61.2 °F /  16.2 °C 30in /  1017.2hPa SSO 4.6mph /  7.4km/h 10.4mph /  16.7km/h 41.7% 0in /  0.0mm
13:19 87.1 °F /  30.6 °C 61.2 °F /  16.2 °C 30in /  1017.1hPa OSO 4.3mph /  6.9km/h 10.4mph /  16.7km/h 42% 0in /  0.0mm
13:24 87.1 °F /  30.6 °C 61.2 °F /  16.2 °C 30in /  1017.1hPa SSO 4.6mph /  7.4km/h 7.6mph /  12.2km/h 42% 0in /  0.0mm
13:29 87.6 °F /  30.9 °C 61.7 °F /  16.5 °C 30in /  1017.1hPa SSE 4.7mph /  7.6km/h 12.7mph /  20.4km/h 42% 0in /  0.0mm
13:34 88.2 °F /  31.2 °C 61.7 °F /  16.5 °C 30in /  1016.8hPa ESE 5.2mph /  8.3km/h 11.5mph /  18.5km/h 41.3% 0in /  0.0mm
13:39 88.2 °F /  31.2 °C 61.5 °F /  16.4 °C 30in /  1016.8hPa ESE 5.4mph /  8.7km/h 9.2mph /  14.8km/h 40.9% 0in /  0.0mm
13:44 88.2 °F /  31.2 °C 61 °F /  16.1 °C 30in /  1016.8hPa SSE 5.3mph /  8.5km/h 6.9mph /  11.1km/h 40.2% 0in /  0.0mm
13:49 88.5 °F /  31.4 °C 61.2 °F /  16.2 °C 30in /  1016.6hPa ENE 5.2mph /  8.4km/h 6.9mph /  11.1km/h 40.1% 0in /  0.0mm
13:54 89.1 °F /  31.7 °C 61.5 °F /  16.4 °C 30in /  1016.6hPa ESE 3.5mph /  5.7km/h 8.1mph /  13km/h 39.8% 0in /  0.0mm
13:59 89.1 °F /  31.7 °C 61 °F /  16.1 °C 30in /  1016.6hPa SSE 2.9mph /  4.7km/h 10.4mph /  16.7km/h 39.2% 0in /  0.0mm
14:04 89.1 °F /  31.7 °C 61.5 °F /  16.4 °C 30in /  1016.6hPa Este 4.6mph /  7.4km/h 8.1mph /  13km/h 40% 0in /  0.0mm
14:09 89.2 °F /  31.8 °C 61.3 °F /  16.3 °C 30in /  1016.6hPa SSO 5.2mph /  8.4km/h 12.7mph /  20.4km/h 39.4% 0in /  0.0mm
14:14 89.4 °F /  31.9 °C 60.8 °F /  16 °C 30in /  1016.6hPa Sur 5.2mph /  8.4km/h 10.4mph /  16.7km/h 38.5% 0in /  0.0mm
14:19 89.2 °F /  31.8 °C 60.3 °F /  15.7 °C 30in /  1016.5hPa SO 5.2mph /  8.4km/h 8.1mph /  13km/h 38.1% 0in /  0.0mm
14:24 89.1 °F /  31.7 °C 60.6 °F /  15.9 °C 30in /  1016.5hPa OSO 4.8mph /  7.8km/h 6.2mph /  10km/h 38.7% 0in /  0.0mm
14:29 89.4 °F /  31.9 °C 60.4 °F /  15.8 °C 30in /  1016.5hPa SE 4.7mph /  7.6km/h 12.7mph /  20.4km/h 38.1% 0in /  0.0mm
14:34 89.2 °F /  31.8 °C 60.6 °F /  15.9 °C 30in /  1016.4hPa ESE 5.2mph /  8.3km/h 9.2mph /  14.8km/h 38.5% 0in /  0.0mm
14:39 89.4 °F /  31.9 °C 61.3 °F /  16.3 °C 30in /  1016.4hPa NNE 5.4mph /  8.7km/h 10.4mph /  16.7km/h 39.2% 0in /  0.0mm
14:44 90 °F /  32.2 °C 61.7 °F /  16.5 °C 30in /  1016.4hPa SE 4.4mph /  7.1km/h 13.5mph /  21.7km/h 39% 0in /  0.0mm
14:49 90.1 °F /  32.3 °C 61.5 °F /  16.4 °C 30in /  1016.3hPa SE 4mph /  6.4km/h 13.8mph /  22.2km/h 38.4% 0in /  0.0mm
14:54 90.1 °F /  32.3 °C 64.2 °F /  17.9 °C 30in /  1016.3hPa SSE 6mph /  9.7km/h 14mph /  22.5km/h 42.5% 0in /  0.0mm
14:59 90 °F /  32.2 °C 65.7 °F /  18.7 °C 30in /  1016.3hPa SE 6.9mph /  11.1km/h 17.3mph /  27.8km/h 44.8% 0in /  0.0mm
15:04 89.4 °F /  31.9 °C 66.4 °F /  19.1 °C 30in /  1016.1hPa ESE 8.1mph /  13.1km/h 16.1mph /  25.9km/h 46.7% 0in /  0.0mm
15:09 89.6 °F /  32 °C 66.2 °F /  19 °C 30in /  1016.1hPa SE 8.5mph /  13.7km/h 17.3mph /  27.8km/h 46.1% 0in /  0.0mm
15:14 88.9 °F /  31.6 °C 66 °F /  18.9 °C 30in /  1016.1hPa SE 8.6mph /  13.9km/h 24.6mph /  39.6km/h 47.1% 0in /  0.0mm
15:19 88.9 °F /  31.6 °C 66.2 °F /  19 °C 30in /  1015.9hPa ESE 8.7mph /  14km/h 17.3mph /  27.8km/h 47.4% 0in /  0.0mm
15:24 88.5 °F /  31.4 °C 66.2 °F /  19 °C 30in /  1015.9hPa ESE 9.6mph /  15.4km/h 18.4mph /  29.6km/h 47.7% 0in /  0.0mm
15:29 88.9 °F /  31.6 °C 65.8 °F /  18.8 °C 30in /  1015.9hPa ESE 10mph /  16.1km/h 17mph /  27.4km/h 46.9% 0in /  0.0mm
15:34 89.2 °F /  31.8 °C 65.7 °F /  18.7 °C 30in /  1015.8hPa SE 9.1mph /  14.6km/h 17.8mph /  28.6km/h 46% 0in /  0.0mm
15:39 89.2 °F /  31.8 °C 65.7 °F /  18.7 °C 30in /  1015.8hPa ESE 8.7mph /  14km/h 18.4mph /  29.6km/h 46% 0in /  0.0mm
15:44 89.1 °F /  31.7 °C 65.3 °F /  18.5 °C 30in /  1015.8hPa ESE 9.6mph /  15.4km/h 15mph /  24.1km/h 45.7% 0in /  0.0mm
15:49 88.9 °F /  31.6 °C 65.5 °F /  18.6 °C 30in /  1015.6hPa SE 10mph /  16.1km/h 19.2mph /  30.9km/h 46% 0in /  0.0mm
15:54 89.1 °F /  31.7 °C 65.3 °F /  18.5 °C 30in /  1015.6hPa ESE 9.8mph /  15.8km/h 19.6mph /  31.5km/h 45.6% 0in /  0.0mm
15:59 89.1 °F /  31.7 °C 64.9 °F /  18.3 °C 30in /  1015.6hPa ESE 9.7mph /  15.6km/h 18.4mph /  29.6km/h 45% 0in /  0.0mm
16:04 89.1 °F /  31.7 °C 64.8 °F /  18.2 °C 30in /  1015.4hPa SE 9.9mph /  16km/h 21.9mph /  35.2km/h 44.6% 0in /  0.0mm
16:09 88.9 °F /  31.6 °C 64.8 °F /  18.2 °C 30in /  1015.4hPa ESE 10mph /  16.1km/h 20.8mph /  33.5km/h 45% 0in /  0.0mm
16:14 88.3 °F /  31.3 °C 64.4 °F /  18 °C 30in /  1015.4hPa ESE 11.6mph /  18.7km/h 20.7mph /  33.3km/h 45% 0in /  0.0mm
16:19 88.9 °F /  31.6 °C 64 °F /  17.8 °C 30in /  1015.3hPa SE 12.3mph /  19.8km/h 20.7mph /  33.3km/h 44.1% 0in /  0.0mm
16:24 88.9 °F /  31.6 °C 64 °F /  17.8 °C 30in /  1015.3hPa ESE 10.5mph /  16.9km/h 21.9mph /  35.2km/h 43.8% 0in /  0.0mm
16:29 88.9 °F /  31.6 °C 64.2 °F /  17.9 °C 30in /  1015.3hPa ESE 9.7mph /  15.6km/h 18.4mph /  29.6km/h 44% 0in /  0.0mm
16:34 89.1 °F /  31.7 °C 63.9 °F /  17.7 °C 30in /  1015.2hPa SE 10.4mph /  16.7km/h 16.1mph /  25.9km/h 43.2% 0in /  0.0mm
16:39 89.2 °F /  31.8 °C 63.5 °F /  17.5 °C 30in /  1015.2hPa ESE 10.7mph /  17.2km/h 17.3mph /  27.8km/h 42.5% 0in /  0.0mm
16:44 89.4 °F /  31.9 °C 63.5 °F /  17.5 °C 30in /  1015.2hPa SE 10mph /  16.1km/h 17.5mph /  28.2km/h 42.3% 0in /  0.0mm
16:49 89.4 °F /  31.9 °C 63.3 °F /  17.4 °C 30in /  1015.1hPa SE 9.7mph /  15.6km/h 19mph /  30.6km/h 42% 0in /  0.0mm
16:54 89.4 °F /  31.9 °C 63.1 °F /  17.3 °C 30in /  1015.1hPa ESE 9.9mph /  15.9km/h 18.4mph /  29.6km/h 41.7% 0in /  0.0mm
16:59 89.4 °F /  31.9 °C 63.3 °F /  17.4 °C 30in /  1015.1hPa SE 10mph /  16.1km/h 18.4mph /  29.6km/h 42% 0in /  0.0mm
17:04 89.6 °F /  32 °C 63.3 °F /  17.4 °C 30in /  1015.0hPa SE 9.8mph /  15.7km/h 18.4mph /  29.6km/h 41.7% 0in /  0.0mm
17:09 89.4 °F /  31.9 °C 63.3 °F /  17.4 °C 30in /  1015.0hPa ESE 9.7mph /  15.6km/h 15.2mph /  24.5km/h 42% 0in /  0.0mm
17:14 89.4 °F /  31.9 °C 63.3 °F /  17.4 °C 30in /  1015.0hPa ESE 9.7mph /  15.6km/h 15.2mph /  24.5km/h 42% 0in /  0.0mm
17:19 89.4 °F /  31.9 °C 63.5 °F /  17.5 °C 30in /  1015.0hPa SE 9.7mph /  15.6km/h 16.1mph /  25.9km/h 42% 0in /  0.0mm
17:24 89.2 °F /  31.8 °C 63.5 °F /  17.5 °C 30in /  1015.0hPa ESE 9.7mph /  15.6km/h 19mph /  30.6km/h 42.5% 0in /  0.0mm
17:29 89.1 °F /  31.7 °C 63.7 °F /  17.6 °C 30in /  1015.0hPa SE 9.7mph /  15.6km/h 15mph /  24.1km/h 43% 0in /  0.0mm
17:34 89.1 °F /  31.7 °C 63.3 °F /  17.4 °C 30in /  1014.9hPa SE 9.3mph /  15km/h 17.3mph /  27.8km/h 42.5% 0in /  0.0mm
17:39 89.1 °F /  31.7 °C 63.3 °F /  17.4 °C 30in /  1014.9hPa ESE 9.2mph /  14.8km/h 21.3mph /  34.3km/h 42.5% 0in /  0.0mm
17:44 88.5 °F /  31.4 °C 63.1 °F /  17.3 °C 30in /  1014.9hPa ESE 10.7mph /  17.2km/h 19mph /  30.6km/h 43% 0in /  0.0mm
17:49 88.7 °F /  31.5 °C 63.1 °F /  17.3 °C 30in /  1014.9hPa ESE 11.4mph /  18.3km/h 19mph /  30.6km/h 42.7% 0in /  0.0mm
17:54 88.7 °F /  31.5 °C 62.6 °F /  17 °C 30in /  1014.9hPa SE 10.4mph /  16.7km/h 18.4mph /  29.6km/h 42% 0in /  0.0mm
17:59 88.9 °F /  31.6 °C 62.8 °F /  17.1 °C 30in /  1014.9hPa ESE 10.2mph /  16.4km/h 16.3mph /  26.2km/h 42% 0in /  0.0mm
18:04 88.7 °F /  31.5 °C 62.6 °F /  17 °C 30in /  1014.9hPa ESE 9.4mph /  15.2km/h 17.3mph /  27.8km/h 42% 0in /  0.0mm
18:09 88.5 °F /  31.4 °C 62.6 °F /  17 °C 30in /  1014.9hPa ESE 9.2mph /  14.8km/h 24.2mph /  38.9km/h 42% 0in /  0.0mm
18:14 88.3 °F /  31.3 °C 62.4 °F /  16.9 °C 30in /  1014.9hPa SE 9.9mph /  15.9km/h 19.6mph /  31.5km/h 42.3% 0in /  0.0mm
18:19 88.3 °F /  31.3 °C 63 °F /  17.2 °C 30in /  1014.8hPa SE 10.2mph /  16.4km/h 16.1mph /  25.9km/h 43% 0in /  0.0mm
18:24 88.3 °F /  31.3 °C 63.1 °F /  17.3 °C 30in /  1014.8hPa SE 9.2mph /  14.8km/h 19mph /  30.6km/h 43% 0in /  0.0mm
18:29 88.3 °F /  31.3 °C 63.1 °F /  17.3 °C 30in /  1014.8hPa ESE 8.7mph /  14km/h 17.3mph /  27.8km/h 43.3% 0in /  0.0mm
18:34 88.2 °F /  31.2 °C 63 °F /  17.2 °C 30in /  1014.8hPa ESE 8.7mph /  14km/h 22.3mph /  35.9km/h 43.3% 0in /  0.0mm
18:39 87.4 °F /  30.8 °C 63 °F /  17.2 °C 30in /  1014.8hPa ESE 8.7mph /  14km/h 20.7mph /  33.3km/h 44% 0in /  0.0mm
18:44 87.4 °F /  30.8 °C 63 °F /  17.2 °C 30in /  1014.9hPa ESE 10.6mph /  17km/h 16.1mph /  25.9km/h 44% 0in /  0.0mm
18:49 87.4 °F /  30.8 °C 63 °F /  17.2 °C 30in /  1014.9hPa ESE 11.4mph /  18.3km/h 21.9mph /  35.2km/h 44.1% 0in /  0.0mm
18:54 87.1 °F /  30.6 °C 63.1 °F /  17.3 °C 30in /  1014.9hPa ESE 11.2mph /  18.1km/h 20.7mph /  33.3km/h 45% 0in /  0.0mm
18:59 87.1 °F /  30.6 °C 63.1 °F /  17.3 °C 30in /  1014.9hPa ESE 11.2mph /  18km/h 19mph /  30.6km/h 45% 0in /  0.0mm
19:04 87.1 °F /  30.6 °C 63.1 °F /  17.3 °C 30in /  1014.9hPa ESE 10.3mph /  16.6km/h 17.3mph /  27.8km/h 45% 0in /  0.0mm
19:09 86.7 °F /  30.4 °C 62.8 °F /  17.1 °C 30in /  1014.9hPa ESE 10mph /  16.1km/h 18.4mph /  29.6km/h 44.9% 0in /  0.0mm
19:14 86.7 °F /  30.4 °C 62.6 °F /  17 °C 30in /  1014.9hPa ESE 10.5mph /  16.9km/h 18.4mph /  29.6km/h 44.6% 0in /  0.0mm
19:19 86.7 °F /  30.4 °C 62.1 °F /  16.7 °C 30in /  1014.9hPa ESE 10.7mph /  17.2km/h 20.7mph /  33.3km/h 44% 0in /  0.0mm
19:24 86.4 °F /  30.2 °C 61.9 °F /  16.6 °C 30in /  1014.9hPa ESE 10.2mph /  16.4km/h 18.4mph /  29.6km/h 44% 0in /  0.0mm
19:29 86.4 °F /  30.2 °C 61.9 °F /  16.6 °C 30in /  1014.9hPa SE 10mph /  16.1km/h 15mph /  24.1km/h 44% 0in /  0.0mm
19:34 86.4 °F /  30.2 °C 61.9 °F /  16.6 °C 30in /  1014.9hPa ESE 9.1mph /  14.7km/h 18.4mph /  29.6km/h 44% 0in /  0.0mm
19:39 86.2 °F /  30.1 °C 61.7 °F /  16.5 °C 30in /  1014.9hPa SE 8.7mph /  14km/h 16.1mph /  25.9km/h 44% 0in /  0.0mm
19:44 86.4 °F /  30.2 °C 61.9 °F /  16.6 °C 30in /  1014.9hPa ESE 8.7mph /  14km/h 13.8mph /  22.2km/h 44% 0in /  0.0mm
19:49 86.2 °F /  30.1 °C 61.7 °F /  16.5 °C 30in /  1014.9hPa SE 8.7mph /  14km/h 17.3mph /  27.8km/h 44% 0in /  0.0mm
19:54 86.2 °F /  30.1 °C 61.5 °F /  16.4 °C 30in /  1014.9hPa ESE 8.3mph /  13.4km/h 15mph /  24.1km/h 43.9% 0in /  0.0mm
19:59 85.8 °F /  29.9 °C 61.3 °F /  16.3 °C 30in /  1015.1hPa ESE 8.1mph /  13km/h 14mph /  22.5km/h 44% 0in /  0.0mm
20:04 85.6 °F /  29.8 °C 61.3 °F /  16.3 °C 30in /  1015.1hPa ESE 8.4mph /  13.5km/h 15mph /  24.1km/h 44% 0in /  0.0mm
20:09 85.6 °F /  29.8 °C 61.2 °F /  16.2 °C 30in /  1015.1hPa ESE 8.5mph /  13.7km/h 12.7mph /  20.4km/h 44% 0in /  0.0mm
20:14 85.6 °F /  29.8 °C 61.2 °F /  16.2 °C 30in /  1015.2hPa SE 7.4mph /  11.9km/h 12.3mph /  19.8km/h 44.1% 0in /  0.0mm
20:19 85.5 °F /  29.7 °C 61.2 °F /  16.2 °C 30in /  1015.2hPa ESE 6.9mph /  11.1km/h 12.7mph /  20.4km/h 44% 0in /  0.0mm
20:24 85.3 °F /  29.6 °C 61 °F /  16.1 °C 30in /  1015.2hPa ESE 6.4mph /  10.3km/h 11.2mph /  18km/h 44% 0in /  0.0mm
20:29 84.9 °F /  29.4 °C 60.6 °F /  15.9 °C 30in /  1015.3hPa SE 6.2mph /  10km/h 11.8mph /  19km/h 44% 0in /  0.0mm
20:34 84.7 °F /  29.3 °C 60.4 °F /  15.8 °C 30in /  1015.3hPa SE 6.2mph /  10km/h 11.5mph /  18.5km/h 44% 0in /  0.0mm
20:39 84.6 °F /  29.2 °C 60.3 °F /  15.7 °C 30in /  1015.3hPa SE 6.2mph /  10km/h 15mph /  24.1km/h 44% 0in /  0.0mm
20:44 84.6 °F /  29.2 °C 60.6 °F /  15.9 °C 30in /  1015.5hPa ESE 6.2mph /  10km/h 10.7mph /  17.2km/h 44.8% 0in /  0.0mm
20:49 84.2 °F /  29 °C 60.8 °F /  16 °C 30in /  1015.5hPa ESE 6.2mph /  10km/h 10.4mph /  16.7km/h 45.3% 0in /  0.0mm
20:54 83.8 °F /  28.8 °C 60.8 °F /  16 °C 30in /  1015.5hPa ESE 5.7mph /  9.1km/h 10.7mph /  17.2km/h 46% 0in /  0.0mm
20:59 83.7 °F /  28.7 °C 60.8 °F /  16 °C 30in /  1015.6hPa ESE 5.4mph /  8.7km/h 10.4mph /  16.7km/h 46% 0in /  0.0mm
21:04 83.5 °F /  28.6 °C 61 °F /  16.1 °C 30in /  1015.6hPa SE 5.8mph /  9.3km/h 11.2mph /  18km/h 46.8% 0in /  0.0mm
21:09 83.3 °F /  28.5 °C 61 °F /  16.1 °C 30in /  1015.6hPa ESE 5.9mph /  9.5km/h 11.5mph /  18.5km/h 47% 0in /  0.0mm
21:14 83.1 °F /  28.4 °C 61 °F /  16.1 °C 30in /  1015.9hPa SE 5.5mph /  8.9km/h 11.5mph /  18.5km/h 47% 0in /  0.0mm
21:19 82.9 °F /  28.3 °C 60.6 °F /  15.9 °C 30in /  1015.9hPa SE 5.4mph /  8.7km/h 10.4mph /  16.7km/h 47% 0in /  0.0mm
21:24 82.9 °F /  28.3 °C 60.6 °F /  15.9 °C 30in /  1015.9hPa SE 5.8mph /  9.3km/h 8.1mph /  13km/h 47% 0in /  0.0mm
21:29 82.8 °F /  28.2 °C 60.4 °F /  15.8 °C 30in /  1016.0hPa SE 5.9mph /  9.5km/h 8.1mph /  13km/h 46.9% 0in /  0.0mm
21:34 82.8 °F /  28.2 °C 60.3 °F /  15.7 °C 30in /  1016.0hPa ESE 4.8mph /  7.7km/h 8.1mph /  13km/h 46.7% 0in /  0.0mm
21:39 82.8 °F /  28.2 °C 60.4 °F /  15.8 °C 30in /  1016.0hPa ESE 4.3mph /  6.9km/h 6.9mph /  11.1km/h 47% 0in /  0.0mm
21:44 82.6 °F /  28.1 °C 60.3 °F /  15.7 °C 30in /  1016.2hPa ESE 4.1mph /  6.6km/h 8.5mph /  13.7km/h 47% 0in /  0.0mm
21:49 82.6 °F /  28.1 °C 60.3 °F /  15.7 °C 30in /  1016.2hPa Este 4mph /  6.4km/h 9.2mph /  14.8km/h 47% 0in /  0.0mm
21:54 82.2 °F /  27.9 °C 60.4 °F /  15.8 °C 30in /  1016.2hPa ENE 4.2mph /  6.8km/h 5.8mph /  9.3km/h 47.7% 0in /  0.0mm
21:59 82 °F /  27.8 °C 60.4 °F /  15.8 °C 30in /  1016.5hPa NE 4.3mph /  6.9km/h 5.8mph /  9.3km/h 48% 0in /  0.0mm
22:04 81.9 °F /  27.7 °C 60.4 °F /  15.8 °C 30in /  1016.5hPa NE 3.4mph /  5.5km/h 5.8mph /  9.3km/h 48.4% 0in /  0.0mm
22:09 81.5 °F /  27.5 °C 60.3 °F /  15.7 °C 30in /  1016.5hPa NE 3.1mph /  5km/h 5.8mph /  9.3km/h 48.7% 0in /  0.0mm
22:14 81.3 °F /  27.4 °C 60.4 °F /  15.8 °C 30in /  1016.6hPa ENE 3.1mph /  5km/h 5.9mph /  9.5km/h 49.5% 0in /  0.0mm
22:19 81.1 °F /  27.3 °C 60.6 °F /  15.9 °C 30in /  1016.6hPa NE 3.1mph /  5km/h 6.2mph /  10km/h 49.9% 0in /  0.0mm
22:24 81 °F /  27.2 °C 60.6 °F /  15.9 °C 30in /  1016.6hPa NE 3.1mph /  5km/h 5.8mph /  9.3km/h 50.1% 0in /  0.0mm
22:29 80.8 °F /  27.1 °C 61 °F /  16.1 °C 30in /  1016.6hPa NNE 3.1mph /  5km/h 4.7mph /  7.6km/h 51% 0in /  0.0mm
22:34 80.8 °F /  27.1 °C 61.3 °F /  16.3 °C 30in /  1016.6hPa ENE 2.6mph /  4.2km/h 6.9mph /  11.1km/h 51.7% 0in /  0.0mm
22:39 80.4 °F /  26.9 °C 61.5 °F /  16.4 °C 30in /  1016.6hPa NE 2.4mph /  3.9km/h 8.1mph /  13km/h 52.6% 0in /  0.0mm
22:44 80.2 °F /  26.8 °C 62.1 °F /  16.7 °C 30in /  1016.8hPa NE 3.7mph /  6km/h 7.6mph /  12.2km/h 53.9% 0in /  0.0mm
22:49 80.1 °F /  26.7 °C 63 °F /  17.2 °C 30in /  1016.8hPa NE 4.3mph /  6.9km/h 8.1mph /  13km/h 56.2% 0in /  0.0mm
22:54 79.7 °F /  26.5 °C 63.1 °F /  17.3 °C 30in /  1016.8hPa NNE 4.5mph /  7.3km/h 5.9mph /  9.5km/h 57.1% 0in /  0.0mm
22:59 79.3 °F /  26.3 °C 63.9 °F /  17.7 °C 30in /  1016.9hPa NNE 4.7mph /  7.6km/h 9.2mph /  14.8km/h 59.1% 0in /  0.0mm
23:04 79 °F /  26.1 °C 63.9 °F /  17.7 °C 30in /  1016.9hPa NE 4.7mph /  7.6km/h 6.9mph /  11.1km/h 60% 0in /  0.0mm
23:09 78.6 °F /  25.9 °C 63.9 °F /  17.7 °C 30in /  1016.9hPa NE 4.7mph /  7.6km/h 6.9mph /  11.1km/h 60.6% 0in /  0.0mm
23:14 78.4 °F /  25.8 °C 63.9 °F /  17.7 °C 30in /  1017.0hPa NE 4.7mph /  7.6km/h 6.9mph /  11.1km/h 61% 0in /  0.0mm
23:19 78.4 °F /  25.8 °C 64.2 °F /  17.9 °C 30in /  1017.0hPa NE 4.7mph /  7.6km/h 6.9mph /  11.1km/h 61.7% 0in /  0.0mm
23:24 78.3 °F /  25.7 °C 64.2 °F /  17.9 °C 30in /  1017.0hPa NE 4.2mph /  6.8km/h 6.2mph /  10km/h 62% 0in /  0.0mm
23:29 78.3 °F /  25.7 °C 64.6 °F /  18.1 °C 30in /  1017.1hPa NE 4mph /  6.4km/h 5.9mph /  9.5km/h 62.9% 0in /  0.0mm
23:34 78.1 °F /  25.6 °C 64.4 °F /  18 °C 30in /  1017.1hPa NE 4mph /  6.4km/h 6.9mph /  11.1km/h 63% 0in /  0.0mm
23:39 77.7 °F /  25.4 °C 64.6 °F /  18.1 °C 30in /  1017.1hPa NE 4mph /  6.4km/h 6.9mph /  11.1km/h 63.9% 0in /  0.0mm
23:44 77.5 °F /  25.3 °C 64.6 °F /  18.1 °C 30in /  1017.1hPa NE 4.5mph /  7.2km/h 6.9mph /  11.1km/h 64.6% 0in /  0.0mm
23:49 77.4 °F /  25.2 °C 64.8 °F /  18.2 °C 30in /  1017.1hPa NE 4.7mph /  7.6km/h 6.9mph /  11.1km/h 65% 0in /  0.0mm
23:54 77.4 °F /  25.2 °C 64.8 °F /  18.2 °C 30in /  1017.1hPa NE 4.3mph /  7km/h 7.4mph /  11.9km/h 65.4% 0in /  0.0mm
23:59 77.2 °F /  25.1 °C 64.9 °F /  18.3 °C 30in /  1017.2hPa NE 4.3mph /  6.9km/h 6.9mph /  11.1km/h 66% 0in /  0.0mm
Murcia-Puente Tocinos, Espa?a
Compliments of Weather Underground - 3 mb

La estación de MeteoMurcia.com, publica sus datos en los siguientes proyectos:

Weather Underground PWS IMURCIAP2 Meteoclimatic www.awekas.at

Web Analytics

Clicky